Hercules Leader — 7JIF — position and weather

sailwx.info

Track history (hours):
 
Tides and Currents Weather Stations Pressure Air Temp Water Temp Dewpoint Dewpoint Depression Visibility Wind Speed Wind Dir Waves Ship Positions

Hercules Leader

Last reported at 2018-Jul-17 10:07 UTC. Time now 2018-Jul-18 06:51 UTC.
Position N 28°32' W 094°25'.

Length 199 m; draft 7.5 m.

Type: Cargo ship. MMSI: 432802956.

Date/timePositionNaut miles runAvg speedWind from/ knotsBaromVisibWave heightAir tempDewpointWater temp
2018-Jul-17 10:07N 28°32' W 094°25'316.1
2018-Jul-17 09:55N 28°36' W 094°25'716.1
2018-Jul-17 09:30N 28°42' W 094°25'816.5
2018-Jul-17 09:00N 28°51' W 094°25'816.4
2018-Jul-17 08:30N 28°59' W 094°25'815.9
2018-Jul-17 08:01N 29°06' W 094°28'816.2
2018-Jul-17 07:30N 29°13' W 094°33'713.0
2018-Jul-17 07:00N 29°18' W 094°37'613.0
2018-Jul-17 06:30N 29°21' W 094°44'612.4
2018-Jul-17 06:00N 29°25' W 094°50'713.3
2018-Jul-17 05:30N 29°31' W 094°53'612.4
2018-Jul-17 05:00N 29°36' W 094°57'510.2
2018-Jul-17 04:30N 29°41' W 094°59'1 2.6
2018-Jul-17 04:00N 29°41' W 095°00'0 0.0
2018-Jul-17 03:29N 29°41' W 095°00'0 0.0
2018-Jul-17 02:59N 29°41' W 095°00'0 0.0
2018-Jul-17 02:29N 29°41' W 095°00'0 0.0
2018-Jul-17 01:59N 29°41' W 095°00'0 0.0
2018-Jul-17 01:29N 29°41' W 095°00'0 0.0
2018-Jul-17 00:59N 29°41' W 095°00'0 0.0
2018-Jul-17 00:29N 29°41' W 095°00'0 0.0
2018-Jul-16 23:29N 29°41' W 095°00'0 0.0
2018-Jul-16 22:59N 29°41' W 095°00'0 0.0
2018-Jul-16 22:29N 29°41' W 095°00'0 0.0
2018-Jul-16 21:59N 29°41' W 095°00'0 0.0
2018-Jul-16 21:26N 29°41' W 095°00'0 0.0
2018-Jul-16 20:59N 29°41' W 095°00'0 0.0
2018-Jul-16 20:29N 29°41' W 095°00'0 0.0
2018-Jul-16 19:59N 29°41' W 095°00'0 0.0
2018-Jul-16 19:29N 29°41' W 095°00'0 0.0
2018-Jul-16 18:59N 29°41' W 095°00'0 0.0
2018-Jul-16 18:29N 29°41' W 095°00'0 0.0
2018-Jul-16 17:59N 29°41' W 095°00'0 0.0
2018-Jul-16 17:29N 29°41' W 095°00'0 0.0
2018-Jul-16 16:53N 29°41' W 095°00'0 0.0
2018-Jul-16 16:29N 29°41' W 095°00'0 0.0
2018-Jul-16 15:59N 29°41' W 095°00'0 0.0
2018-Jul-16 15:29N 29°41' W 095°00'0 0.0
2018-Jul-16 14:59N 29°41' W 095°00'0 0.0
2018-Jul-16 14:29N 29°41' W 095°00'0 0.0
2018-Jul-16 13:59N 29°41' W 095°00'0 0.0
2018-Jul-16 13:29N 29°41' W 095°00'0 0.1
2018-Jul-16 13:00N 29°41' W 095°00'1 2.8
2018-Jul-16 12:30N 29°41' W 094°59'5 9.7
2018-Jul-16 12:00N 29°36' W 094°57'611.1
2018-Jul-16 11:30N 29°31' W 094°53'611.3
2018-Jul-16 11:00N 29°26' W 094°50'611.7
2018-Jul-16 10:31N 29°21' W 094°47'610.8
2018-Jul-16 09:58N 29°20' W 094°41'510.6
2018-Jul-16 09:30N 29°18' W 094°36'5 9.1
2018-Jul-16 08:59N 29°15' W 094°31'4 8.0
2018-Jul-16 08:30N 29°13' W 094°28'4 7.6
2018-Jul-16 07:59N 29°10' W 094°24'4 8.0
2018-Jul-16 07:30N 29°08' W 094°20'4 7.9
2018-Jul-16 07:00N 29°06' W 094°17'4 7.2
2018-Jul-16 06:28N 29°04' W 094°13'4 8.5
2018-Jul-16 06:00N 29°02' W 094°09'4 8.2
2018-Jul-16 05:30N 28°59' W 094°05'4 8.6
2018-Jul-16 04:59N 28°57' W 094°01'612.3
2018-Jul-16 04:29N 28°53' W 093°55'612.4
2018-Jul-16 04:00N 28°50' W 093°50'612.4
2018-Jul-16 03:30N 28°46' W 093°44'76115.8
2018-Jul-14 03:30N 25°17' W 080°03'816.0
2018-Jul-14 03:00N 25°24' W 080°01'816.2
2018-Jul-14 02:30N 25°32' W 080°01'816.7
2018-Jul-14 02:00N 25°41' W 080°01'816.3
2018-Jul-14 01:30N 25°49' W 079°59'714.4
2018-Jul-14 01:01N 25°56' W 079°56'3 6.4
2018-Jul-14 00:30N 25°59' W 079°56'2 5.0
2018-Jul-14 00:00N 26°01' W 079°57'610.7
2018-Jul-13 23:29N 26°03' W 080°03'4 9.0
2018-Jul-13 23:00N 26°06' W 080°07'1 1.8
2018-Jul-13 22:30N 26°05' W 080°07'0 0.0
2018-Jul-13 21:58N 26°05' W 080°07'0 0.0
2018-Jul-13 21:28N 26°05' W 080°07'0 0.0
2018-Jul-13 20:58N 26°05' W 080°07'0 0.0
2018-Jul-13 20:28N 26°05' W 080°07'0 0.0
2018-Jul-13 19:58N 26°05' W 080°07'0 0.0
2018-Jul-13 19:28N 26°05' W 080°07'0 0.0
2018-Jul-13 18:49N 26°05' W 080°07'0 0.0
2018-Jul-13 18:19N 26°05' W 080°07'0 0.0
2018-Jul-13 17:52N 26°05' W 080°07'0 0.0
2018-Jul-13 17:28N 26°05' W 080°07'0 0.0
2018-Jul-13 16:58N 26°05' W 080°07'1 1.8
2018-Jul-13 16:30N 26°06' W 080°07'4 8.6
2018-Jul-13 16:00N 26°06' W 080°02'510.1
2018-Jul-13 15:30N 26°10' W 079°59'4 8.9
2018-Jul-13 15:00N 26°14' W 079°57'1515.4
2018-Jul-13 14:00N 26°29' W 079°55'916.5
2018-Jul-13 13:29N 26°38' W 079°55'816.7
2018-Jul-13 13:01N 26°46' W 079°55'816.5
2018-Jul-13 12:30N 26°54' W 079°54'816.2
2018-Jul-13 12:00N 27°02' W 079°55'21116.8
2018-Jul-12 23:28N 30°21' W 081°16'15 0.9
2018-Jul-12 05:47N 30°24' W 081°33'0 0.0
2018-Jul-12 05:29N 30°24' W 081°33'0 0.0
2018-Jul-12 00:38N 30°24' W 081°33'0 0.6
2018-Jul-12 00:30N 30°24' W 081°33'35 9.5
2018-Jul-11 20:47N 30°19' W 080°52'412.1
2018-Jul-11 20:27N 30°19' W 080°48'3 6.0
2018-Jul-11 19:57N 30°19' W 080°44'6311.2
2018-Jul-11 14:19N 31°08' W 079°59'6014.5
2018-Jul-11 10:11N 31°47' W 079°06'712.9
2018-Jul-11 09:40N 31°51' W 078°60'213.2
2018-Jul-11 09:30N 31°53' W 078°58'26915.5
2018-Jul-10 16:13N 35°07' W 075°15'417.7
2018-Jul-10 16:00N 35°10' W 075°12'917.3
2018-Jul-10 15:31N 35°18' W 075°11'917.6
2018-Jul-10 15:00N 35°27' W 075°11'917.5
2018-Jul-10 14:30N 35°36' W 075°11'917.5
2018-Jul-10 14:01N 35°44' W 075°13'2617.5
2018-Jul-10 12:31N 36°09' W 075°26'917.1
2018-Jul-10 12:00N 36°17' W 075°30'817.2
2018-Jul-10 11:30N 36°25' W 075°33'917.0
2018-Jul-10 10:57N 36°33' W 075°38'716.8
2018-Jul-10 10:30N 36°40' W 075°41'4414.2
2018-Jul-10 07:25N 37°19' W 076°06'1217.3
2018-Jul-10 06:44N 37°31' W 076°03'416.8
2018-Jul-10 06:30N 37°35' W 076°03'917.0
2018-Jul-10 06:00N 37°41' W 076°10'816.8
2018-Jul-10 05:30N 37°50' W 076°10'816.1
2018-Jul-10 05:00N 37°58' W 076°12'816.5
2018-Jul-10 04:31N 38°06' W 076°13'816.3
2018-Jul-10 04:00N 38°14' W 076°15'2216.2
2018-Jul-10 02:40N 38°34' W 076°26'316.1
2018-Jul-10 02:30N 38°36' W 076°26'816.0
2018-Jul-10 02:00N 38°44' W 076°26'916.6
2018-Jul-10 01:28N 38°53' W 076°24'715.5
2018-Jul-10 01:00N 39°00' W 076°23'713.5
2018-Jul-10 00:30N 39°07' W 076°24'612.0
2018-Jul-10 00:00N 39°11' W 076°29'4 8.6
2018-Jul-09 23:30N 39°15' W 076°33'1 1.7
2018-Jul-09 22:58N 39°15' W 076°32'0 0.0
2018-Jul-09 22:28N 39°15' W 076°32'0 0.0
2018-Jul-09 21:58N 39°15' W 076°32'0 0.0
2018-Jul-09 21:28N 39°15' W 076°32'0 0.0
2018-Jul-09 20:58N 39°15' W 076°32'0 0.0
2018-Jul-09 20:28N 39°15' W 076°32'0 0.0
2018-Jul-09 19:58N 39°15' W 076°32'0 0.0
2018-Jul-09 19:28N 39°15' W 076°32'0 0.0
2018-Jul-09 18:58N 39°15' W 076°32'0 0.0
2018-Jul-09 18:28N 39°15' W 076°32'0 0.0
2018-Jul-09 17:58N 39°15' W 076°32'0 0.0
2018-Jul-09 17:28N 39°15' W 076°32'0 0.0
2018-Jul-09 16:58N 39°15' W 076°32'0 0.0
2018-Jul-09 16:28N 39°15' W 076°32'0 0.0
2018-Jul-09 15:58N 39°15' W 076°32'0 0.0
2018-Jul-09 15:28N 39°15' W 076°32'0 0.0
2018-Jul-09 14:58N 39°15' W 076°32'0 0.0
2018-Jul-09 14:28N 39°15' W 076°32'0 0.0
2018-Jul-09 13:58N 39°15' W 076°32'0 0.0
2018-Jul-09 13:28N 39°15' W 076°32'0 0.0
2018-Jul-09 12:58N 39°15' W 076°32'0 0.0
2018-Jul-09 12:26N 39°15' W 076°32'0 0.0
2018-Jul-09 11:58N 39°15' W 076°32'0 0.0
2018-Jul-09 11:28N 39°15' W 076°32'0 0.0
2018-Jul-09 10:58N 39°15' W 076°32'0 0.0
2018-Jul-09 10:28N 39°15' W 076°32'0 0.0
2018-Jul-09 09:58N 39°15' W 076°32'0 0.0
2018-Jul-09 09:28N 39°15' W 076°32'0 0.0
2018-Jul-09 08:58N 39°15' W 076°32'0 0.0
2018-Jul-09 08:26N 39°15' W 076°32'0 0.0
2018-Jul-09 07:58N 39°15' W 076°32'0 0.0
2018-Jul-09 07:26N 39°15' W 076°32'0 0.0
2018-Jul-09 06:58N 39°15' W 076°32'0 0.0
2018-Jul-09 06:28N 39°15' W 076°32'0 0.0
2018-Jul-09 05:58N 39°15' W 076°32'0 0.0
2018-Jul-09 05:28N 39°15' W 076°32'0 0.0
2018-Jul-09 04:58N 39°15' W 076°32'0 0.0
2018-Jul-09 04:28N 39°15' W 076°32'0 0.0
2018-Jul-09 03:58N 39°15' W 076°32'0 0.0
2018-Jul-09 03:28N 39°15' W 076°32'0 0.0
2018-Jul-09 02:58N 39°15' W 076°32'0 0.0
2018-Jul-09 02:28N 39°15' W 076°32'0 0.0
2018-Jul-09 01:58N 39°15' W 076°32'0 0.0
2018-Jul-09 01:28N 39°15' W 076°32'0 0.0
2018-Jul-09 00:58N 39°15' W 076°32'0 0.0
2018-Jul-09 00:28N 39°15' W 076°32'0 0.1
2018-Jul-09 00:00N 39°15' W 076°32'2 3.4
2018-Jul-08 23:30N 39°14' W 076°32'4 7.8
2018-Jul-08 23:00N 39°11' W 076°28'612.2
2018-Jul-08 22:30N 39°09' W 076°21'611.8
2018-Jul-08 21:59N 39°13' W 076°15'612.7
2018-Jul-08 21:30N 39°19' W 076°13'613.1
2018-Jul-08 21:00N 39°23' W 076°06'612.6
2018-Jul-08 20:30N 39°27' W 075°60'510.6
2018-Jul-08 20:01N 39°30' W 075°55'4 7.2
2018-Jul-08 19:30N 39°32' W 075°50'3 5.5
2018-Jul-08 19:00N 39°32' W 075°47'4 8.8
2018-Jul-08 18:30N 39°33' W 075°41'4 8.0
2018-Jul-08 18:01N 39°33' W 075°36'3 5.8
2018-Jul-08 17:30N 39°32' W 075°33'612.2
2018-Jul-08 17:00N 39°26' W 075°32'713.7
2018-Jul-08 16:30N 39°21' W 075°26'714.3
2018-Jul-08 16:01N 39°16' W 075°20'714.2
2018-Jul-08 15:30N 39°10' W 075°15'612.2
2018-Jul-08 15:00N 39°05' W 075°11'712.9
2018-Jul-08 14:30N 38°59' W 075°08'814.4
2018-Jul-08 13:56N 38°51' W 075°04'5 8.7
2018-Jul-08 13:24N 38°47' W 075°01'4 8.8
2018-Jul-08 13:00N 38°47' W 074°56'5 9.7
2018-Jul-08 12:29N 38°48' W 074°50'510.0
2018-Jul-08 12:00N 38°48' W 074°44'510.2
2018-Jul-08 11:30N 38°49' W 074°37'510.3
2018-Jul-08 10:58N 38°50' W 074°30'4 6.9
2018-Jul-08 10:26N 38°52' W 074°26'1 2.3
2018-Jul-08 09:50N 38°51' W 074°25'  
Track history (hours):
 
Tides and Currents Weather Stations Pressure Air Temp Water Temp Dewpoint Dewpoint Depression Visibility Wind Speed Wind Dir Waves Ship Positions

Hercules Leader

Last reported at 2018-Jul-17 10:07 UTC. Time now 2018-Jul-18 06:51 UTC.
Position N 28°32' W 094°25'.

Length 199 m; draft 7.5 m.

Type: Cargo ship. MMSI: 432802956.

Date/timePositionNaut miles runAvg speedWind from/ knotsBaromVisibWave heightAir tempDewpointWater temp
2018-Jul-17 10:07N 28°32' W 094°25'316.1
2018-Jul-17 09:55N 28°36' W 094°25'716.1
2018-Jul-17 09:30N 28°42' W 094°25'816.5
2018-Jul-17 09:00N 28°51' W 094°25'816.4
2018-Jul-17 08:30N 28°59' W 094°25'815.9
2018-Jul-17 08:01N 29°06' W 094°28'816.2
2018-Jul-17 07:30N 29°13' W 094°33'713.0
2018-Jul-17 07:00N 29°18' W 094°37'613.0
2018-Jul-17 06:30N 29°21' W 094°44'612.4
2018-Jul-17 06:00N 29°25' W 094°50'713.3
2018-Jul-17 05:30N 29°31' W 094°53'612.4
2018-Jul-17 05:00N 29°36' W 094°57'510.2
2018-Jul-17 04:30N 29°41' W 094°59'1 2.6
2018-Jul-17 04:00N 29°41' W 095°00'0 0.0
2018-Jul-17 03:29N 29°41' W 095°00'0 0.0
2018-Jul-17 02:59N 29°41' W 095°00'0 0.0
2018-Jul-17 02:29N 29°41' W 095°00'0 0.0
2018-Jul-17 01:59N 29°41' W 095°00'0 0.0
2018-Jul-17 01:29N 29°41' W 095°00'0 0.0
2018-Jul-17 00:59N 29°41' W 095°00'0 0.0
2018-Jul-17 00:29N 29°41' W 095°00'0 0.0
2018-Jul-16 23:29N 29°41' W 095°00'0 0.0
2018-Jul-16 22:59N 29°41' W 095°00'0 0.0
2018-Jul-16 22:29N 29°41' W 095°00'0 0.0
2018-Jul-16 21:59N 29°41' W 095°00'0 0.0
2018-Jul-16 21:26N 29°41' W 095°00'0 0.0
2018-Jul-16 20:59N 29°41' W 095°00'0 0.0
2018-Jul-16 20:29N 29°41' W 095°00'0 0.0
2018-Jul-16 19:59N 29°41' W 095°00'0 0.0
2018-Jul-16 19:29N 29°41' W 095°00'0 0.0
2018-Jul-16 18:59N 29°41' W 095°00'0 0.0
2018-Jul-16 18:29N 29°41' W 095°00'0 0.0
2018-Jul-16 17:59N 29°41' W 095°00'0 0.0
2018-Jul-16 17:29N 29°41' W 095°00'0 0.0
2018-Jul-16 16:53N 29°41' W 095°00'0 0.0
2018-Jul-16 16:29N 29°41' W 095°00'0 0.0
2018-Jul-16 15:59N 29°41' W 095°00'0 0.0
2018-Jul-16 15:29N 29°41' W 095°00'0 0.0
2018-Jul-16 14:59N 29°41' W 095°00'0 0.0
2018-Jul-16 14:29N 29°41' W 095°00'0 0.0
2018-Jul-16 13:59N 29°41' W 095°00'0 0.0
2018-Jul-16 13:29N 29°41' W 095°00'0 0.1
2018-Jul-16 13:00N 29°41' W 095°00'1 2.8
2018-Jul-16 12:30N 29°41' W 094°59'5 9.7
2018-Jul-16 12:00N 29°36' W 094°57'611.1
2018-Jul-16 11:30N 29°31' W 094°53'611.3
2018-Jul-16 11:00N 29°26' W 094°50'611.7
2018-Jul-16 10:31N 29°21' W 094°47'610.8
2018-Jul-16 09:58N 29°20' W 094°41'510.6
2018-Jul-16 09:30N 29°18' W 094°36'5 9.1
2018-Jul-16 08:59N 29°15' W 094°31'4 8.0
2018-Jul-16 08:30N 29°13' W 094°28'4 7.6
2018-Jul-16 07:59N 29°10' W 094°24'4 8.0
2018-Jul-16 07:30N 29°08' W 094°20'4 7.9
2018-Jul-16 07:00N 29°06' W 094°17'4 7.2
2018-Jul-16 06:28N 29°04' W 094°13'4 8.5
2018-Jul-16 06:00N 29°02' W 094°09'4 8.2
2018-Jul-16 05:30N 28°59' W 094°05'4 8.6
2018-Jul-16 04:59N 28°57' W 094°01'612.3
2018-Jul-16 04:29N 28°53' W 093°55'612.4
2018-Jul-16 04:00N 28°50' W 093°50'612.4
2018-Jul-16 03:30N 28°46' W 093°44'76115.8
2018-Jul-14 03:30N 25°17' W 080°03'816.0
2018-Jul-14 03:00N 25°24' W 080°01'816.2
2018-Jul-14 02:30N 25°32' W 080°01'816.7
2018-Jul-14 02:00N 25°41' W 080°01'816.3
2018-Jul-14 01:30N 25°49' W 079°59'714.4
2018-Jul-14 01:01N 25°56' W 079°56'3 6.4
2018-Jul-14 00:30N 25°59' W 079°56'2 5.0
2018-Jul-14 00:00N 26°01' W 079°57'610.7
2018-Jul-13 23:29N 26°03' W 080°03'4 9.0
2018-Jul-13 23:00N 26°06' W 080°07'1 1.8
2018-Jul-13 22:30N 26°05' W 080°07'0 0.0
2018-Jul-13 21:58N 26°05' W 080°07'0 0.0
2018-Jul-13 21:28N 26°05' W 080°07'0 0.0
2018-Jul-13 20:58N 26°05' W 080°07'0 0.0
2018-Jul-13 20:28N 26°05' W 080°07'0 0.0
2018-Jul-13 19:58N 26°05' W 080°07'0 0.0
2018-Jul-13 19:28N 26°05' W 080°07'0 0.0
2018-Jul-13 18:49N 26°05' W 080°07'0 0.0
2018-Jul-13 18:19N 26°05' W 080°07'0 0.0
2018-Jul-13 17:52N 26°05' W 080°07'0 0.0
2018-Jul-13 17:28N 26°05' W 080°07'0 0.0
2018-Jul-13 16:58N 26°05' W 080°07'1 1.8
2018-Jul-13 16:30N 26°06' W 080°07'4 8.6
2018-Jul-13 16:00N 26°06' W 080°02'510.1
2018-Jul-13 15:30N 26°10' W 079°59'4 8.9
2018-Jul-13 15:00N 26°14' W 079°57'1515.4
2018-Jul-13 14:00N 26°29' W 079°55'916.5
2018-Jul-13 13:29N 26°38' W 079°55'816.7
2018-Jul-13 13:01N 26°46' W 079°55'816.5
2018-Jul-13 12:30N 26°54' W 079°54'816.2
2018-Jul-13 12:00N 27°02' W 079°55'21116.8
2018-Jul-12 23:28N 30°21' W 081°16'15 0.9
2018-Jul-12 05:47N 30°24' W 081°33'0 0.0
2018-Jul-12 05:29N 30°24' W 081°33'0 0.0
2018-Jul-12 00:38N 30°24' W 081°33'0 0.6
2018-Jul-12 00:30N 30°24' W 081°33'35 9.5
2018-Jul-11 20:47N 30°19' W 080°52'412.1
2018-Jul-11 20:27N 30°19' W 080°48'3 6.0
2018-Jul-11 19:57N 30°19' W 080°44'6311.2
2018-Jul-11 14:19N 31°08' W 079°59'6014.5
2018-Jul-11 10:11N 31°47' W 079°06'712.9
2018-Jul-11 09:40N 31°51' W 078°60'213.2
2018-Jul-11 09:30N 31°53' W 078°58'26915.5
2018-Jul-10 16:13N 35°07' W 075°15'417.7
2018-Jul-10 16:00N 35°10' W 075°12'917.3
2018-Jul-10 15:31N 35°18' W 075°11'917.6
2018-Jul-10 15:00N 35°27' W 075°11'917.5
2018-Jul-10 14:30N 35°36' W 075°11'917.5
2018-Jul-10 14:01N 35°44' W 075°13'2617.5
2018-Jul-10 12:31N 36°09' W 075°26'917.1
2018-Jul-10 12:00N 36°17' W 075°30'817.2
2018-Jul-10 11:30N 36°25' W 075°33'917.0
2018-Jul-10 10:57N 36°33' W 075°38'716.8
2018-Jul-10 10:30N 36°40' W 075°41'4414.2
2018-Jul-10 07:25N 37°19' W 076°06'1217.3
2018-Jul-10 06:44N 37°31' W 076°03'416.8
2018-Jul-10 06:30N 37°35' W 076°03'917.0
2018-Jul-10 06:00N 37°41' W 076°10'816.8
2018-Jul-10 05:30N 37°50' W 076°10'816.1
2018-Jul-10 05:00N 37°58' W 076°12'816.5
2018-Jul-10 04:31N 38°06' W 076°13'816.3
2018-Jul-10 04:00N 38°14' W 076°15'2216.2
2018-Jul-10 02:40N 38°34' W 076°26'316.1
2018-Jul-10 02:30N 38°36' W 076°26'816.0
2018-Jul-10 02:00N 38°44' W 076°26'916.6
2018-Jul-10 01:28N 38°53' W 076°24'715.5
2018-Jul-10 01:00N 39°00' W 076°23'713.5
2018-Jul-10 00:30N 39°07' W 076°24'612.0
2018-Jul-10 00:00N 39°11' W 076°29'4 8.6
2018-Jul-09 23:30N 39°15' W 076°33'1 1.7
2018-Jul-09 22:58N 39°15' W 076°32'0 0.0
2018-Jul-09 22:28N 39°15' W 076°32'0 0.0
2018-Jul-09 21:58N 39°15' W 076°32'0 0.0
2018-Jul-09 21:28N 39°15' W 076°32'0 0.0
2018-Jul-09 20:58N 39°15' W 076°32'0 0.0
2018-Jul-09 20:28N 39°15' W 076°32'0 0.0
2018-Jul-09 19:58N 39°15' W 076°32'0 0.0
2018-Jul-09 19:28N 39°15' W 076°32'0 0.0
2018-Jul-09 18:58N 39°15' W 076°32'0 0.0
2018-Jul-09 18:28N 39°15' W 076°32'0 0.0
2018-Jul-09 17:58N 39°15' W 076°32'0 0.0
2018-Jul-09 17:28N 39°15' W 076°32'0 0.0
2018-Jul-09 16:58N 39°15' W 076°32'0 0.0
2018-Jul-09 16:28N 39°15' W 076°32'0 0.0
2018-Jul-09 15:58N 39°15' W 076°32'0 0.0
2018-Jul-09 15:28N 39°15' W 076°32'0 0.0
2018-Jul-09 14:58N 39°15' W 076°32'0 0.0
2018-Jul-09 14:28N 39°15' W 076°32'0 0.0
2018-Jul-09 13:58N 39°15' W 076°32'0 0.0
2018-Jul-09 13:28N 39°15' W 076°32'0 0.0
2018-Jul-09 12:58N 39°15' W 076°32'0 0.0
2018-Jul-09 12:26N 39°15' W 076°32'0 0.0
2018-Jul-09 11:58N 39°15' W 076°32'0 0.0
2018-Jul-09 11:28N 39°15' W 076°32'0 0.0
2018-Jul-09 10:58N 39°15' W 076°32'0 0.0
2018-Jul-09 10:28N 39°15' W 076°32'0 0.0
2018-Jul-09 09:58N 39°15' W 076°32'0 0.0
2018-Jul-09 09:28N 39°15' W 076°32'0 0.0
2018-Jul-09 08:58N 39°15' W 076°32'0 0.0
2018-Jul-09 08:26N 39°15' W 076°32'0 0.0
2018-Jul-09 07:58N 39°15' W 076°32'0 0.0
2018-Jul-09 07:26N 39°15' W 076°32'0 0.0
2018-Jul-09 06:58N 39°15' W 076°32'0 0.0
2018-Jul-09 06:28N 39°15' W 076°32'0 0.0
2018-Jul-09 05:58N 39°15' W 076°32'0 0.0
2018-Jul-09 05:28N 39°15' W 076°32'0 0.0
2018-Jul-09 04:58N 39°15' W 076°32'0 0.0
2018-Jul-09 04:28N 39°15' W 076°32'0 0.0
2018-Jul-09 03:58N 39°15' W 076°32'0 0.0
2018-Jul-09 03:28N 39°15' W 076°32'0 0.0
2018-Jul-09 02:58N 39°15' W 076°32'0 0.0
2018-Jul-09 02:28N 39°15' W 076°32'0 0.0
2018-Jul-09 01:58N 39°15' W 076°32'0 0.0
2018-Jul-09 01:28N 39°15' W 076°32'0 0.0
2018-Jul-09 00:58N 39°15' W 076°32'0 0.0
2018-Jul-09 00:28N 39°15' W 076°32'0 0.1
2018-Jul-09 00:00N 39°15' W 076°32'2 3.4
2018-Jul-08 23:30N 39°14' W 076°32'4 7.8
2018-Jul-08 23:00N 39°11' W 076°28'612.2
2018-Jul-08 22:30N 39°09' W 076°21'611.8
2018-Jul-08 21:59N 39°13' W 076°15'612.7
2018-Jul-08 21:30N 39°19' W 076°13'613.1
2018-Jul-08 21:00N 39°23' W 076°06'612.6
2018-Jul-08 20:30N 39°27' W 075°60'510.6
2018-Jul-08 20:01N 39°30' W 075°55'4 7.2
2018-Jul-08 19:30N 39°32' W 075°50'3 5.5
2018-Jul-08 19:00N 39°32' W 075°47'4 8.8
2018-Jul-08 18:30N 39°33' W 075°41'4 8.0
2018-Jul-08 18:01N 39°33' W 075°36'3 5.8
2018-Jul-08 17:30N 39°32' W 075°33'612.2
2018-Jul-08 17:00N 39°26' W 075°32'713.7
2018-Jul-08 16:30N 39°21' W 075°26'714.3
2018-Jul-08 16:01N 39°16' W 075°20'714.2
2018-Jul-08 15:30N 39°10' W 075°15'612.2
2018-Jul-08 15:00N 39°05' W 075°11'712.9
2018-Jul-08 14:30N 38°59' W 075°08'814.4
2018-Jul-08 13:56N 38°51' W 075°04'5 8.7
2018-Jul-08 13:24N 38°47' W 075°01'4 8.8
2018-Jul-08 13:00N 38°47' W 074°56'5 9.7
2018-Jul-08 12:29N 38°48' W 074°50'510.0
2018-Jul-08 12:00N 38°48' W 074°44'510.2
2018-Jul-08 11:30N 38°49' W 074°37'510.3
2018-Jul-08 10:58N 38°50' W 074°30'4 6.9
2018-Jul-08 10:26N 38°52' W 074°26'1 2.3
2018-Jul-08 09:50N 38°51' W 074°25'  

Dump ship's entire track history